createdAt,value
2019-02-18T00:00:18.302Z,9.18
2019-02-18T00:02:48.581Z,9.16
2019-02-18T00:05:18.185Z,9.16
2019-02-18T00:07:48.497Z,9.17
2019-02-18T00:10:21.861Z,9.15
2019-02-18T00:12:56.044Z,9.13
2019-02-18T00:15:26.799Z,9.11
2019-02-18T00:17:55.927Z,9.10
2019-02-18T00:20:27.565Z,9.10
2019-02-18T00:22:58.742Z,9.08
2019-02-18T00:25:31.035Z,9.09
2019-02-18T00:28:02.202Z,9.11
2019-02-18T00:30:33.438Z,9.12
2019-02-18T00:33:02.645Z,9.13
2019-02-18T00:35:34.053Z,9.14
2019-02-18T00:38:04.373Z,9.16
2019-02-18T00:40:36.894Z,9.17
2019-02-18T00:43:09.641Z,9.19
2019-02-18T00:45:39.804Z,9.20
2019-02-18T00:48:12.147Z,9.21
2019-02-18T00:53:23.771Z,9.23
2019-02-18T00:55:54.025Z,9.24
2019-02-18T00:58:24.019Z,9.25
2019-02-18T01:00:55.562Z,9.26
2019-02-18T01:03:25.816Z,9.27
2019-02-18T01:05:57.392Z,9.26
2019-02-18T01:08:27.089Z,9.26
2019-02-18T01:10:57.004Z,9.25
2019-02-18T01:13:30.861Z,9.22
2019-02-18T01:16:01.565Z,9.22
2019-02-18T01:18:32.761Z,9.21
2019-02-18T01:21:07.140Z,9.21
2019-02-18T01:23:42.253Z,9.20
2019-02-18T01:26:12.525Z,9.18
2019-02-18T01:28:44.402Z,9.15
2019-02-18T01:31:16.442Z,9.16
2019-02-18T01:33:49.244Z,9.15
2019-02-18T01:36:23.006Z,9.14
2019-02-18T01:38:52.818Z,9.14
2019-02-18T01:41:25.236Z,9.13
2019-02-18T01:43:56.149Z,9.13
2019-02-18T01:46:25.615Z,9.13
2019-02-18T01:48:57.230Z,9.13
2019-02-18T01:51:28.620Z,9.13
2019-02-18T01:53:58.269Z,9.13
2019-02-18T01:56:29.486Z,9.14
2019-02-18T01:59:00.853Z,9.14
2019-02-18T02:01:30.057Z,9.14
2019-02-18T02:04:00.157Z,9.15
2019-02-18T02:06:29.779Z,9.16
2019-02-18T02:08:58.899Z,9.17
2019-02-18T02:11:32.602Z,9.18
2019-02-18T02:14:02.904Z,9.18
2019-02-18T02:16:33.248Z,9.19
2019-02-18T02:19:05.784Z,9.20
2019-02-18T02:21:37.971Z,9.21
2019-02-18T02:24:08.112Z,9.21
2019-02-18T02:26:38.212Z,9.23
2019-02-18T02:29:07.830Z,9.21
2019-02-18T02:31:38.391Z,9.19
2019-02-18T02:34:13.384Z,9.16
2019-02-18T02:36:42.608Z,9.12
2019-02-18T02:39:14.042Z,9.11
2019-02-18T02:41:44.818Z,9.09
2019-02-18T02:44:16.351Z,9.05
2019-02-18T02:46:47.155Z,9.03
2019-02-18T02:49:18.585Z,9.01
2019-02-18T02:51:51.685Z,9.00
2019-02-18T02:54:22.651Z,8.98
2019-02-18T02:56:53.142Z,8.96
2019-02-18T02:59:28.539Z,8.94
2019-02-18T03:02:03.946Z,8.94
2019-02-18T03:04:33.771Z,8.94
2019-02-18T03:07:04.679Z,8.92
2019-02-18T03:09:36.713Z,8.89
2019-02-18T03:12:07.180Z,8.87
2019-02-18T03:14:37.467Z,8.85
2019-02-18T03:17:12.023Z,8.83
2019-02-18T03:19:45.100Z,8.82
2019-02-18T03:22:15.223Z,8.79
2019-02-18T03:25:55.690Z,8.78
2019-02-18T03:28:43.512Z,8.78
2019-02-18T03:31:19.435Z,8.77
2019-02-18T03:33:58.945Z,8.78
2019-02-18T03:36:28.817Z,8.77
2019-02-18T03:38:59.550Z,8.77
2019-02-18T03:41:29.709Z,8.77
2019-02-18T03:44:02.881Z,8.77
2019-02-18T03:49:10.845Z,8.78
2019-02-18T03:51:43.066Z,8.78
2019-02-18T03:54:17.839Z,8.76
2019-02-18T03:56:52.303Z,8.75
2019-02-18T03:59:22.563Z,8.74
2019-02-18T04:01:53.391Z,8.72
2019-02-18T04:04:25.214Z,8.71
2019-02-18T04:06:54.760Z,8.69
2019-02-18T04:09:24.244Z,8.67
2019-02-18T04:11:56.195Z,8.67
2019-02-18T04:14:26.021Z,8.68
2019-02-18T04:16:56.023Z,8.67
2019-02-18T04:19:27.981Z,8.66
2019-02-18T04:21:57.355Z,8.67
2019-02-18T04:24:31.919Z,8.67
2019-02-18T04:27:02.451Z,8.67
2019-02-18T04:29:31.536Z,8.64
2019-02-18T04:32:04.312Z,8.65
2019-02-18T04:34:34.354Z,8.63
2019-02-18T04:37:03.593Z,8.63
2019-02-18T04:39:33.518Z,8.61
2019-02-18T04:42:02.846Z,8.60
2019-02-18T04:44:33.064Z,8.59
2019-02-18T04:47:02.720Z,8.60
2019-02-18T04:49:31.782Z,8.60
2019-02-18T04:52:02.497Z,8.60
2019-02-18T04:54:33.427Z,8.59
2019-02-18T04:57:02.576Z,8.61
2019-02-18T04:59:32.306Z,8.63
2019-02-18T05:02:02.949Z,8.62
2019-02-18T05:04:33.897Z,8.63
2019-02-18T05:07:06.081Z,8.64
2019-02-18T05:09:35.689Z,8.66
2019-02-18T05:12:05.410Z,8.68
2019-02-18T05:14:39.804Z,8.70
2019-02-18T05:17:10.187Z,8.70
2019-02-18T05:19:39.757Z,8.71
2019-02-18T05:22:09.553Z,8.73
2019-02-18T05:24:42.582Z,8.72
2019-02-18T05:27:13.577Z,8.73
2019-02-18T05:29:46.492Z,8.72
2019-02-18T05:32:16.675Z,8.73
2019-02-18T05:34:48.242Z,8.72
2019-02-18T05:37:17.595Z,8.71
2019-02-18T05:39:47.604Z,8.72
2019-02-18T05:42:18.059Z,8.72
2019-02-18T05:44:47.914Z,8.72
2019-02-18T05:47:17.929Z,8.72
2019-02-18T05:49:48.541Z,8.71
2019-02-18T05:52:18.565Z,8.72
2019-02-18T05:54:47.676Z,8.72
2019-02-18T05:57:17.942Z,8.73
2019-02-18T05:59:49.529Z,8.71
2019-02-18T06:02:18.834Z,8.72
2019-02-18T06:04:51.613Z,8.74
2019-02-18T06:07:24.378Z,8.74
2019-02-18T06:09:54.632Z,8.74
2019-02-18T06:12:24.514Z,8.74
2019-02-18T06:14:54.990Z,8.74
2019-02-18T06:17:26.293Z,8.73
2019-02-18T06:19:55.994Z,8.75
2019-02-18T06:22:26.434Z,8.73
2019-02-18T06:24:59.937Z,8.73
2019-02-18T06:27:33.911Z,8.72
2019-02-18T06:30:11.445Z,8.70
2019-02-18T06:32:46.745Z,8.71
2019-02-18T06:35:16.474Z,8.68
2019-02-18T06:37:48.981Z,8.67
2019-02-18T06:40:21.524Z,8.65
2019-02-18T06:42:52.704Z,8.64
2019-02-18T06:49:41.264Z,8.65
2019-02-18T06:52:11.224Z,8.64
2019-02-18T06:54:41.663Z,8.65
2019-02-18T06:57:19.627Z,8.65
2019-02-18T06:59:56.688Z,8.67
2019-02-18T07:02:33.069Z,8.67
2019-02-18T07:05:07.187Z,8.67
2019-02-18T07:07:45.888Z,8.66
2019-02-18T07:10:24.011Z,8.65
2019-02-18T07:12:54.805Z,8.63
2019-02-18T07:15:25.841Z,8.60
2019-02-18T07:17:56.701Z,8.60
2019-02-18T07:20:30.089Z,8.58
2019-02-18T07:23:02.776Z,8.57
2019-02-18T07:25:33.786Z,8.57
2019-02-18T07:28:08.136Z,8.57
2019-02-18T07:30:43.081Z,8.57
2019-02-18T07:33:12.676Z,8.59
2019-02-18T07:35:42.675Z,8.64
2019-02-18T07:38:17.648Z,8.68
2019-02-18T07:40:47.445Z,8.74
2019-02-18T07:43:17.875Z,8.80
2019-02-18T07:45:48.273Z,8.86
2019-02-18T07:48:19.307Z,8.94
2019-02-18T07:50:48.447Z,8.99
2019-02-18T07:53:22.931Z,9.07
2019-02-18T07:55:53.466Z,9.13
2019-02-18T07:58:24.680Z,9.14
2019-02-18T08:00:55.456Z,9.16
2019-02-18T08:03:25.850Z,9.18
2019-02-18T08:05:55.918Z,9.20
2019-02-18T08:11:00.290Z,9.24
2019-02-18T08:13:40.197Z,9.24
2019-02-18T08:16:10.376Z,9.22
2019-02-18T08:18:48.607Z,9.23
2019-02-18T08:21:22.144Z,9.22
2019-02-18T08:24:00.098Z,9.22
2019-02-18T08:26:25.746Z,9.23
2019-02-18T08:28:56.988Z,9.27
2019-02-18T08:31:34.336Z,9.31
2019-02-18T08:34:05.574Z,9.33
2019-02-18T08:36:38.539Z,9.36
2019-02-18T08:39:10.422Z,9.39
2019-02-18T08:41:44.682Z,9.45
2019-02-18T08:47:02.831Z,9.53
2019-02-18T08:49:32.640Z,9.56
2019-02-18T08:52:06.683Z,9.58
2019-02-18T08:54:40.448Z,9.61
2019-02-18T08:57:21.737Z,9.62
2019-02-18T08:59:56.572Z,9.68
2019-02-18T09:02:39.295Z,9.71
2019-02-18T09:05:12.362Z,9.75
2019-02-18T09:07:44.000Z,9.77
2019-02-18T09:10:15.639Z,9.78
2019-02-18T09:12:46.599Z,9.81
2019-02-18T09:15:16.264Z,9.82
2019-02-18T09:17:57.887Z,9.85
2019-02-18T09:20:28.078Z,9.88
2019-02-18T09:23:08.125Z,9.88
2019-02-18T09:25:43.513Z,9.89
2019-02-18T09:28:12.725Z,9.91
2019-02-18T09:30:45.349Z,9.94
2019-02-18T09:33:16.070Z,9.94
2019-02-18T09:35:49.215Z,9.95
2019-02-18T09:38:24.996Z,9.96
2019-02-18T09:40:59.344Z,9.97
2019-02-18T09:43:35.873Z,9.99
2019-02-18T09:46:06.913Z,10.02
2019-02-18T09:48:38.270Z,10.09
2019-02-18T09:51:10.296Z,10.15
2019-02-18T09:53:51.843Z,10.18
2019-02-18T09:56:24.364Z,10.23
2019-02-18T09:58:55.969Z,10.23
2019-02-18T10:01:31.495Z,10.26
2019-02-18T10:04:06.391Z,10.29
2019-02-18T10:06:37.889Z,10.28
2019-02-18T10:09:07.706Z,10.32
2019-02-18T10:11:37.438Z,10.33
2019-02-18T10:14:56.073Z,10.36
2019-02-18T10:17:25.054Z,10.37
2019-02-18T10:20:02.015Z,10.32
2019-02-18T10:22:31.800Z,10.24
2019-02-18T10:25:01.956Z,10.17
2019-02-18T10:27:33.097Z,10.12
2019-02-18T10:30:02.160Z,10.10
2019-02-18T10:33:38.161Z,10.10
2019-02-18T10:36:07.407Z,10.13
2019-02-18T10:38:40.180Z,10.14
2019-02-18T10:41:14.055Z,10.17
2019-02-18T10:43:48.072Z,10.17
2019-02-18T10:46:17.677Z,10.22
2019-02-18T10:48:48.142Z,10.27
2019-02-18T10:51:18.789Z,10.32
2019-02-18T10:53:48.835Z,10.36
2019-02-18T10:56:19.015Z,10.38
2019-02-18T10:58:49.037Z,10.44
2019-02-18T11:01:18.873Z,10.53
2019-02-18T11:03:55.288Z,10.63
2019-02-18T11:06:28.092Z,10.71
2019-02-18T11:09:00.563Z,10.79
2019-02-18T11:11:31.576Z,10.87
2019-02-18T11:14:01.357Z,10.94
2019-02-18T11:16:47.968Z,11.00
2019-02-18T11:22:10.191Z,11.16
2019-02-18T11:24:43.382Z,11.24
2019-02-18T11:27:12.927Z,11.32
2019-02-18T11:29:42.579Z,11.35
2019-02-18T11:32:12.777Z,11.36
2019-02-18T11:34:41.981Z,11.36
2019-02-18T11:37:15.498Z,11.38
2019-02-18T11:39:47.855Z,11.39
2019-02-18T11:42:20.361Z,11.41
2019-02-18T11:48:51.228Z,11.45
2019-02-18T11:51:22.697Z,11.48
2019-02-18T11:53:53.517Z,11.51
2019-02-18T11:56:24.141Z,11.53
2019-02-18T11:58:53.398Z,11.54
2019-02-18T12:01:24.260Z,11.55
2019-02-18T12:03:59.236Z,11.54
2019-02-18T12:06:33.990Z,11.55
2019-02-18T12:09:09.794Z,11.58
2019-02-18T12:18:19.490Z,11.56
2019-02-18T12:20:50.108Z,11.56
2019-02-18T12:23:27.325Z,11.56
2019-02-18T12:25:57.015Z,11.50
2019-02-18T12:28:29.067Z,11.46
2019-02-18T12:30:59.696Z,11.45
2019-02-18T12:33:31.954Z,11.47
2019-02-18T12:36:04.329Z,11.47
2019-02-18T12:38:37.434Z,11.50
2019-02-18T12:41:15.751Z,11.52
2019-02-18T12:43:47.762Z,11.52
2019-02-18T12:46:21.938Z,11.54
2019-02-18T12:48:52.131Z,11.55
2019-02-18T12:51:23.311Z,11.56
2019-02-18T12:53:53.438Z,11.57
2019-02-18T12:56:31.951Z,11.58
2019-02-18T12:59:08.968Z,11.57
2019-02-18T13:01:51.726Z,11.56
2019-02-18T13:04:27.371Z,11.57
2019-02-18T13:07:03.111Z,11.56
2019-02-18T13:09:34.103Z,11.55
2019-02-18T13:12:09.533Z,11.55
2019-02-18T13:14:40.627Z,11.56
2019-02-18T13:17:11.882Z,11.58
2019-02-18T13:19:43.706Z,11.58
2019-02-18T13:22:23.623Z,11.58
2019-02-18T13:24:55.862Z,11.55
2019-02-18T13:27:33.238Z,11.54
2019-02-18T13:30:03.338Z,11.55
2019-02-18T13:32:42.629Z,11.54
2019-02-18T13:35:12.646Z,11.54
2019-02-18T13:37:42.522Z,11.55
2019-02-18T13:40:12.099Z,11.56
2019-02-18T13:42:41.145Z,11.56
2019-02-18T13:45:15.874Z,11.56
2019-02-18T13:47:46.891Z,11.56
2019-02-18T13:50:24.165Z,11.53
2019-02-18T13:52:57.708Z,11.53
2019-02-18T13:55:35.116Z,11.50
2019-02-18T13:58:04.778Z,11.49
2019-02-18T14:00:40.937Z,11.50
2019-02-18T14:03:10.997Z,11.52
2019-02-18T14:05:42.995Z,11.53
2019-02-18T14:08:15.679Z,11.52
2019-02-18T14:10:54.990Z,11.52
2019-02-18T14:13:24.461Z,11.53
2019-02-18T14:16:00.138Z,11.53
2019-02-18T14:18:34.013Z,11.56
2019-02-18T14:21:05.015Z,11.57
2019-02-18T14:23:38.747Z,11.57
2019-02-18T14:26:13.487Z,11.56
2019-02-18T14:28:48.159Z,11.56
2019-02-18T14:31:20.773Z,11.57
2019-02-18T14:33:52.196Z,11.56
2019-02-18T14:36:24.979Z,11.56
2019-02-18T14:38:58.479Z,11.55
2019-02-18T14:41:30.581Z,11.55
2019-02-18T14:44:09.514Z,11.55
2019-02-18T14:46:51.240Z,11.54
2019-02-18T14:49:26.117Z,11.52
2019-02-18T14:52:06.206Z,11.51
2019-02-18T14:54:53.611Z,11.50
2019-02-18T14:57:24.300Z,11.49
2019-02-18T14:59:53.669Z,11.50
2019-02-18T15:02:28.372Z,11.50
2019-02-18T15:04:58.569Z,11.50
2019-02-18T15:07:29.479Z,11.47
2019-02-18T15:09:59.742Z,11.47
2019-02-18T15:12:33.257Z,11.49
2019-02-18T15:15:02.930Z,11.48
2019-02-18T15:17:46.937Z,11.48
2019-02-18T15:20:20.325Z,11.47
2019-02-18T15:22:50.517Z,11.46
2019-02-18T15:25:21.790Z,11.44
2019-02-18T15:27:52.720Z,11.42
2019-02-18T15:30:22.538Z,11.41
2019-02-18T15:32:54.822Z,11.40
2019-02-18T15:35:27.506Z,11.38
2019-02-18T15:37:59.610Z,11.36
2019-02-18T15:40:29.149Z,11.33
2019-02-18T15:43:00.841Z,11.32
2019-02-18T15:45:31.003Z,11.30
2019-02-18T15:48:02.112Z,11.30
2019-02-18T15:50:36.142Z,11.29
2019-02-18T15:53:07.328Z,11.28
2019-02-18T15:55:38.839Z,11.25
2019-02-18T15:58:09.834Z,11.24
2019-02-18T16:03:23.951Z,11.23
2019-02-18T16:05:55.719Z,11.21
2019-02-18T16:08:30.262Z,11.21
2019-02-18T16:11:06.593Z,11.19
2019-02-18T16:13:38.598Z,11.15
2019-02-18T16:16:10.545Z,11.13
2019-02-18T16:18:41.690Z,11.11
2019-02-18T16:21:14.641Z,11.12
2019-02-18T16:23:46.118Z,11.10
2019-02-18T16:26:19.769Z,11.06
2019-02-18T16:28:55.039Z,11.02
2019-02-18T16:31:30.601Z,10.98
2019-02-18T16:34:02.551Z,10.93
2019-02-18T16:36:32.485Z,10.91
2019-02-18T16:39:05.431Z,10.90
2019-02-18T16:41:41.570Z,10.87
2019-02-18T16:44:11.583Z,10.82
2019-02-18T16:46:44.741Z,10.79
2019-02-18T16:49:22.579Z,10.75
2019-02-18T16:51:52.492Z,10.69
2019-02-18T16:54:25.321Z,10.63
2019-02-18T16:57:02.444Z,10.58
2019-02-18T16:59:31.548Z,10.53
2019-02-18T17:02:18.316Z,10.50
2019-02-18T17:04:47.798Z,10.49
2019-02-18T17:07:18.587Z,10.44
2019-02-18T17:09:50.619Z,10.42
2019-02-18T17:12:21.249Z,10.38
2019-02-18T17:15:05.915Z,10.34
2019-02-18T17:17:41.067Z,10.32
2019-02-18T17:20:11.720Z,10.28
2019-02-18T17:23:10.826Z,10.25
2019-02-18T17:25:41.217Z,10.22
2019-02-18T17:28:13.807Z,10.20
2019-02-18T17:30:49.199Z,10.17
2019-02-18T17:33:21.574Z,10.08
2019-02-18T17:35:52.568Z,10.03
2019-02-18T17:38:26.112Z,9.99
2019-02-18T17:40:58.778Z,9.98
2019-02-18T17:43:32.845Z,9.93
2019-02-18T17:46:13.222Z,9.90
2019-02-18T17:48:45.485Z,9.86
2019-02-18T17:51:19.030Z,9.84
2019-02-18T17:53:52.872Z,9.82
2019-02-18T17:56:28.949Z,9.83
2019-02-18T17:59:05.296Z,9.77
2019-02-18T18:01:36.298Z,9.70
2019-02-18T18:04:08.397Z,9.64
2019-02-18T18:06:42.270Z,9.61
2019-02-18T18:11:51.270Z,9.53
2019-02-18T18:14:28.282Z,9.50
2019-02-18T18:17:06.905Z,9.47
2019-02-18T18:19:36.340Z,9.45
2019-02-18T18:22:14.479Z,9.44
2019-02-18T18:24:52.080Z,9.42
2019-02-18T18:27:22.915Z,9.40
2019-02-18T18:30:02.782Z,9.37
2019-02-18T18:32:36.006Z,9.34
2019-02-18T18:35:05.999Z,9.32
2019-02-18T18:37:40.179Z,9.31
2019-02-18T18:40:11.957Z,9.31
2019-02-18T18:42:43.098Z,9.30
2019-02-18T18:45:19.466Z,9.27
2019-02-18T18:48:01.190Z,9.25
2019-02-18T18:50:32.687Z,9.25
2019-02-18T18:53:06.040Z,9.27
2019-02-18T18:55:47.894Z,9.33
2019-02-18T18:58:25.490Z,9.37
2019-02-18T19:01:01.721Z,9.40
2019-02-18T19:03:37.094Z,9.41
2019-02-18T19:06:10.647Z,9.38
2019-02-18T19:08:47.702Z,9.37
2019-02-18T19:11:20.386Z,9.35
2019-02-18T19:13:55.984Z,9.31
2019-02-18T19:16:28.683Z,9.27
2019-02-18T19:19:02.958Z,9.24
2019-02-18T19:21:34.779Z,9.20
2019-02-18T19:24:08.750Z,9.18
2019-02-18T19:26:43.700Z,9.19
2019-02-18T19:29:15.841Z,9.19
2019-02-18T19:31:45.985Z,9.21
2019-02-18T19:34:21.071Z,9.20
2019-02-18T19:36:53.476Z,9.20
2019-02-18T19:39:27.587Z,9.21
2019-02-18T19:41:58.907Z,9.23
2019-02-18T19:44:28.254Z,9.26
2019-02-18T19:47:00.982Z,9.30
2019-02-18T19:49:36.723Z,9.34
2019-02-18T19:52:06.762Z,9.39
2019-02-18T19:54:45.383Z,9.43
2019-02-18T19:57:17.528Z,9.43
2019-02-18T19:59:50.122Z,9.42
2019-02-18T20:02:21.719Z,9.37
2019-02-18T20:04:51.237Z,9.34
2019-02-18T20:07:21.478Z,9.32
2019-02-18T20:09:53.946Z,9.31
2019-02-18T20:12:26.599Z,9.28
2019-02-18T20:14:56.974Z,9.24
2019-02-18T20:17:30.015Z,9.23
2019-02-18T20:20:07.198Z,9.19
2019-02-18T20:22:48.029Z,9.15
2019-02-18T20:25:19.311Z,9.10
2019-02-18T20:27:59.077Z,9.05
2019-02-18T20:30:36.270Z,9.02
2019-02-18T20:33:07.488Z,9.02
2019-02-18T20:35:38.080Z,9.02
2019-02-18T20:38:16.345Z,9.00
2019-02-18T20:40:48.049Z,8.99
2019-02-18T20:43:18.209Z,8.96
2019-02-18T20:45:49.760Z,8.93
2019-02-18T20:48:23.123Z,8.88
2019-02-18T20:50:55.846Z,8.87
2019-02-18T20:53:30.838Z,8.82
2019-02-18T20:58:39.741Z,8.79
2019-02-18T21:01:14.938Z,8.80
2019-02-18T21:03:50.083Z,8.79
2019-02-18T21:06:20.649Z,8.77
2019-02-18T21:09:00.408Z,8.76
2019-02-18T21:11:31.538Z,8.75
2019-02-18T21:14:14.351Z,8.77
2019-02-18T21:16:44.537Z,8.76
2019-02-18T21:19:18.763Z,8.77
2019-02-18T21:21:50.671Z,8.77
2019-02-18T21:24:23.356Z,8.80
2019-02-18T21:26:56.390Z,8.82
2019-02-18T21:29:27.654Z,8.84
2019-02-18T21:32:00.012Z,8.88
2019-02-18T21:34:31.580Z,8.90
2019-02-18T21:37:05.499Z,8.93
2019-02-18T21:39:36.961Z,8.93
2019-02-18T21:42:07.627Z,8.93
2019-02-18T21:44:43.546Z,8.93
2019-02-18T21:47:14.960Z,8.92
2019-02-18T21:49:58.603Z,8.91
2019-02-18T21:52:40.310Z,8.93
2019-02-18T21:55:16.869Z,8.94
2019-02-18T21:57:51.667Z,8.96
2019-02-18T22:00:24.257Z,8.97
2019-02-18T22:02:55.496Z,8.99
2019-02-18T22:05:27.465Z,9.00
2019-02-18T22:08:04.510Z,9.02
2019-02-18T22:10:41.836Z,9.02
2019-02-18T22:13:23.538Z,9.04
2019-02-18T22:16:02.346Z,9.03
2019-02-18T22:18:34.174Z,9.00
2019-02-18T22:21:04.918Z,8.96
2019-02-18T22:23:36.017Z,8.93
2019-02-18T22:26:08.840Z,8.86
2019-02-18T22:28:51.213Z,8.78
2019-02-18T22:31:20.545Z,8.74
2019-02-18T22:33:56.761Z,8.68
2019-02-18T22:36:28.284Z,8.66
2019-02-18T22:38:57.980Z,8.63
2019-02-18T22:41:39.593Z,8.61
2019-02-18T22:44:10.473Z,8.62
2019-02-18T22:46:43.513Z,8.62
2019-02-18T22:49:17.897Z,8.62
2019-02-18T22:51:52.820Z,8.61
2019-02-18T22:54:26.512Z,8.60
2019-02-18T22:56:55.916Z,8.60
2019-02-18T22:59:25.534Z,8.59
2019-02-18T23:01:56.270Z,8.59
2019-02-18T23:04:26.070Z,8.59
2019-02-18T23:06:58.541Z,8.62
2019-02-18T23:09:28.604Z,8.66
2019-02-18T23:12:02.412Z,8.69
2019-02-18T23:14:32.461Z,8.70
2019-02-18T23:17:03.434Z,8.69
2019-02-18T23:19:38.204Z,8.66
2019-02-18T23:22:10.197Z,8.63
2019-02-18T23:24:42.642Z,8.63
2019-02-18T23:27:14.913Z,8.61
2019-02-18T23:29:49.822Z,8.61
2019-02-18T23:32:20.771Z,8.61
2019-02-18T23:35:02.003Z,8.62
2019-02-18T23:37:34.340Z,8.61
2019-02-18T23:40:03.940Z,8.56
2019-02-18T23:42:34.481Z,8.52
2019-02-18T23:45:08.390Z,8.48
2019-02-18T23:47:45.549Z,8.47
2019-02-18T23:50:15.114Z,8.50
2019-02-18T23:52:46.514Z,8.53
2019-02-18T23:55:16.317Z,8.56
2019-02-18T23:57:47.258Z,8.59
